Rhinelander, WI

5:51 PM CST on January 30, 2015 (GMT -0600)
WIDOT Monico - USH 8 @ USH 45 | Change Station
CLOSE
Current Station
Personal Weather Station
Location: Pelican Lake, WI
Elevation: 1601 ft
Nearby Weather Stations

Elev 1601 ft 45.58 °N, 89.15 °W | Updated 9 hours ago

Mostly Cloudy
Mostly Cloudy
16 °F
Feels Like 9 °F
N
6
Wind Variable Wind from SW
Gusts 8 mph

Today
High -- | Low -- °F
--% Chance of Precip.
Yesterday
High -- | Low -- °F
Precip. -- in
7:20 AM 4:59 PM
Waxing Gibbous, 86% visible
Pressure 30.38 in
Visibility 10.0 miles
Clouds Overcast 7500 ft
Windchill 9 °F
Dew Point 5 °F
Humidity 62%
Rainfall -999.00 in
Snow Depth Not available.
UV 0 out of 12
Pollen .10 out of 12
Air Quality Not available.
Flu Activity Not available.
METAR KRHI 302253Z AUTO 21004KT 10SM OVC075 M08/M17 A3027 RMK AO2 SLP285 T10831167

More Conditions Fewer Conditions

Pressure 30.38 in
Visibility 10.0 miles
Clouds Overcast 7500 ft
Windchill 9 °F
Dew Point 5 °F
Humidity 62%
Rainfall -999.00 in
Snow Depth Not available.
UV 0 out of 12
Pollen .10 out of 12
Air Quality Not available.
Flu Activity Not available.
METAR KRHI 302253Z AUTO 21004KT 10SM OVC075 M08/M17 A3027 RMK AO2 SLP285 T10831167

More Conditions Fewer Conditions

10-Day Weather Forecast

Almanac

Astronomy

Jan. 30, 2015 Rise Set
Actual Time
Civil Twilight
Nautical Twilight
Astronomical Twilight
Moon
Length of Visible Light
Length of Day
Tomorrow will be .
, % of the Moon is Illuminated

Today's Extremes

State Highs State Lows

Community

WunderPhotos

Upload Photos

1,791,934 photos uploaded!

WunderBlogs® & News

Nearby

Air Quality

  Air Quality AQ Index Pollutant
Not available.

Snow Depth

Station Depth Elevation

Earthquake Activity

City Distance Mag. Time & Date
Minimum magnitude displayed is 2.5.

Coastal Water Temperatures

Place Temperature

Nearby Weather Stations